Time;durP1;ratioP1;P1;durP2;ratioP2;P2;SDS_P1;SDS_P2;PMS_P1;PMS_P2;Temp;Humidity;BMP_temperature;BMP_pressure;BME280_temperature;BME280_humidity;BME280_pressure;Samples;Min_cycle;Max_cycle;Signal;HPM_P1;HPM_P2
2023/07/09 00:01:51;;;;;;;4.87;4.37;;;23.70;55.80;23.10;96911.00;;;;4973216;28;20584;-79
2023/07/09 00:04:19;;;;;;;5.10;4.60;;;23.70;55.90;23.10;96903.00;;;;4980301;28;20259;-79
2023/07/09 00:06:48;;;;;;;4.83;4.37;;;23.60;56.00;23.00;96905.00;;;;4978405;28;20225;-79
2023/07/09 00:09:19;;;;;;;5.70;4.50;;;23.60;56.00;23.00;96912.00;;;;4976103;28;20350;-79
2023/07/09 00:11:48;;;;;;;5.77;4.77;;;23.60;56.10;23.00;96908.00;;;;4976518;28;20196;-79
2023/07/09 00:14:19;;;;;;;4.93;4.33;;;23.50;56.10;22.90;96909.00;;;;4974465;28;20224;-79
2023/07/09 00:16:48;;;;;;;6.20;4.43;;;23.50;56.30;22.90;96909.00;;;;4978722;28;20226;-79
2023/07/09 00:19:19;;;;;;;6.07;4.57;;;23.50;56.30;22.80;96912.00;;;;4977701;28;20206;-80
2023/07/09 00:21:53;;;;;;;5.00;4.40;;;23.50;56.50;22.80;96913.00;;;;4977471;28;20208;-80
2023/07/09 00:24:20;;;;;;;4.43;4.03;;;23.40;56.60;22.80;96908.00;;;;4970772;28;20208;-79
2023/07/09 00:26:48;;;;;;;5.90;4.57;;;23.40;56.60;22.80;96910.00;;;;4966276;28;20309;-79
2023/07/09 00:29:18;;;;;;;7.40;4.83;;;23.40;56.60;22.70;96908.00;;;;4979836;28;20230;-79
2023/07/09 00:31:47;;;;;;;5.57;4.57;;;23.30;56.70;22.70;96908.00;;;;4974610;28;20201;-80
2023/07/09 00:34:21;;;;;;;4.77;4.33;;;23.30;56.80;22.70;96903.00;;;;4964896;28;20292;-80
2023/07/09 00:36:51;;;;;;;4.60;4.03;;;23.30;57.00;22.60;96907.00;;;;4970388;28;20280;-80
2023/07/09 00:39:21;;;;;;;6.57;4.50;;;23.30;57.10;22.60;96916.00;;;;4978532;28;20207;-79
2023/07/09 00:41:52;;;;;;;5.57;4.37;;;23.20;57.10;22.60;96915.00;;;;4962645;28;20203;-80
2023/07/09 00:44:31;;;;;;;5.50;4.50;;;23.20;57.20;22.50;96924.00;;;;4980461;28;20586;-80
2023/07/09 00:47:35;;;;;;;4.90;4.23;;;23.20;57.50;22.50;96921.00;;;;4976798;28;20222;-79
2023/07/09 00:50:13;;;;;;;5.27;4.43;;;23.10;57.50;22.50;96922.00;;;;4953696;28;20615;-80
2023/07/09 00:52:53;;;;;;;4.57;4.10;;;23.10;57.50;22.40;96920.00;;;;4975723;28;20204;-80
2023/07/09 00:55:26;;;;;;;5.47;4.70;;;23.10;57.50;22.40;96913.00;;;;4974559;28;20310;-80
2023/07/09 00:57:58;;;;;;;5.00;4.43;;;23.00;57.40;22.40;96915.00;;;;4974386;28;20203;-80
2023/07/09 01:00:45;;;;;;;4.00;3.70;;;23.00;57.50;22.40;96917.00;;;;4971250;28;20282;-80
2023/07/09 01:03:22;;;;;;;4.40;4.00;;;23.00;57.70;22.30;96922.00;;;;4968591;28;20211;-80
2023/07/09 01:05:55;;;;;;;6.13;4.87;;;23.00;57.70;22.30;96923.00;;;;4974453;28;20215;-80
2023/07/09 01:08:27;;;;;;;5.13;4.27;;;22.90;57.80;22.30;96926.00;;;;4976828;28;20243;-80
2023/07/09 01:10:54;;;;;;;7.07;4.63;;;22.90;57.90;22.30;96930.00;;;;4971160;28;20211;-80
2023/07/09 01:13:22;;;;;;;5.17;4.67;;;22.90;57.80;22.30;96928.00;;;;4978265;28;20227;-80
2023/07/09 01:15:50;;;;;;;4.83;4.33;;;22.90;57.80;22.20;96933.00;;;;4974753;28;20215;-79
2023/07/09 01:18:17;;;;;;;4.80;4.30;;;22.80;57.80;22.20;96933.00;;;;4972053;28;20259;-78
2023/07/09 01:20:46;;;;;;;5.40;4.77;;;22.80;57.80;22.20;96928.00;;;;4979071;28;20199;-79
2023/07/09 01:23:16;;;;;;;5.40;4.57;;;22.80;57.90;22.20;96931.00;;;;4972937;28;20606;-79
2023/07/09 01:25:54;;;;;;;5.97;4.60;;;22.80;58.10;22.10;96931.00;;;;4977238;28;20227;-80
2023/07/09 01:28:22;;;;;;;5.27;4.77;;;22.80;58.10;22.10;96934.00;;;;4974729;28;20200;-80
2023/07/09 01:30:53;;;;;;;5.47;4.60;;;22.70;58.00;22.10;96943.00;;;;4975521;28;20260;-80
2023/07/09 01:33:23;;;;;;;4.90;4.03;;;22.70;58.10;22.00;96938.00;;;;4975191;28;20204;-80
2023/07/09 01:35:52;;;;;;;4.77;4.00;;;22.70;58.20;22.00;96941.00;;;;4965805;28;20251;-80
2023/07/09 01:38:21;;;;;;;5.53;4.97;;;22.60;58.20;22.00;96945.00;;;;4978897;28;20203;-80
2023/07/09 01:40:49;;;;;;;5.63;4.80;;;22.60;58.30;22.00;96947.00;;;;4979960;28;20210;-80
2023/07/09 01:43:16;;;;;;;5.10;4.60;;;22.60;58.40;21.90;96936.00;;;;4981016;28;20330;-79
2023/07/09 01:45:43;;;;;;;4.93;4.43;;;22.60;58.50;21.90;96933.00;;;;4969776;28;20280;-80
2023/07/09 01:48:15;;;;;;;4.73;4.27;;;22.50;58.60;21.80;96931.00;;;;4957094;28;20208;-80
2023/07/09 01:50:44;;;;;;;6.13;4.93;;;22.50;58.70;21.80;96930.00;;;;4977807;28;20203;-79
2023/07/09 01:53:15;;;;;;;14.30;4.73;;;22.50;58.80;21.80;96937.00;;;;4966632;28;20269;-80
2023/07/09 01:55:44;;;;;;;5.50;4.37;;;22.40;58.80;21.70;96931.00;;;;4969173;28;20737;-80
2023/07/09 01:58:12;;;;;;;5.17;4.57;;;22.40;58.80;21.70;96932.00;;;;4967945;28;20200;-80
2023/07/09 02:00:41;;;;;;;5.93;4.20;;;22.40;58.90;21.70;96933.00;;;;4953902;28;20282;-79
2023/07/09 02:03:08;;;;;;;5.00;4.50;;;22.40;59.40;21.70;96938.00;;;;4970548;28;20203;-80
2023/07/09 02:05:37;;;;;;;6.07;4.60;;;22.30;58.90;21.60;96945.00;;;;4960444;28;20298;-80
2023/07/09 02:08:05;;;;;;;6.07;5.10;;;22.30;59.40;21.60;96945.00;;;;4978799;28;20198;-80
2023/07/09 02:10:33;;;;;;;4.93;4.43;;;22.30;59.00;21.60;96942.00;;;;4925055;28;1303368;-80
2023/07/09 02:13:01;;;;;;;5.13;4.63;;;22.30;59.10;21.60;96937.00;;;;4963038;28;20191;-79
2023/07/09 02:15:30;;;;;;;5.67;5.03;;;22.20;59.20;21.50;96931.00;;;;4973133;28;20226;-80
2023/07/09 02:17:58;;;;;;;5.73;5.13;;;22.20;59.40;21.50;96946.00;;;;4969725;28;20221;-80
2023/07/09 02:20:27;;;;;;;5.30;4.80;;;22.20;59.50;21.50;96936.00;;;;4969476;28;20208;-80
2023/07/09 02:22:54;;;;;;;5.63;4.17;;;22.20;59.60;21.50;96946.00;;;;4970110;28;20204;-79
2023/07/09 02:25:21;;;;;;;5.37;4.63;;;22.10;59.60;21.50;96939.00;;;;4971020;28;20208;-80
2023/07/09 02:27:49;;;;;;;5.13;4.63;;;22.10;59.60;21.40;96944.00;;;;4969971;28;20200;-80
2023/07/09 02:30:18;;;;;;;5.27;4.77;;;22.10;59.50;21.40;96954.00;;;;4975614;28;20250;-80
2023/07/09 02:32:46;;;;;;;5.33;4.83;;;22.10;59.60;21.40;96945.00;;;;4977381;28;20203;-79
2023/07/09 02:35:13;;;;;;;5.57;5.00;;;22.10;59.70;21.40;96943.00;;;;4981009;28;20204;-79
2023/07/09 02:37:40;;;;;;;6.07;5.27;;;22.00;59.90;21.30;96945.00;;;;4974851;28;20200;-79
2023/07/09 02:40:12;;;;;;;5.63;5.00;;;22.00;60.80;21.30;96938.00;;;;4964340;28;20290;-79
2023/07/09 02:42:42;;;;;;;5.47;4.47;;;22.00;60.20;21.30;96948.00;;;;4976202;28;20286;-79
2023/07/09 02:45:11;;;;;;;6.40;4.53;;;22.00;60.20;21.30;96948.00;;;;4986144;28;20203;-79
2023/07/09 02:47:40;;;;;;;6.07;4.87;;;21.90;60.30;21.30;96953.00;;;;4979078;28;20292;-79
2023/07/09 02:50:08;;;;;;;4.83;4.40;;;22.00;60.30;21.30;96963.00;;;;4978908;28;20305;-79
2023/07/09 02:52:36;;;;;;;5.80;4.77;;;21.90;60.30;21.20;96957.00;;;;4977433;28;20568;-79
2023/07/09 02:55:03;;;;;;;4.80;4.30;;;21.90;60.20;21.20;96958.00;;;;4967648;28;20214;-79
2023/07/09 02:57:31;;;;;;;5.60;4.50;;;21.90;60.40;21.20;96961.00;;;;4973343;28;20215;-79
2023/07/09 02:59:59;;;;;;;5.40;4.43;;;21.90;60.60;21.20;96959.00;;;;4974034;28;20209;-79
2023/07/09 03:02:30;;;;;;;5.13;4.53;;;21.90;60.80;21.20;96957.00;;;;4972798;28;20213;-79
2023/07/09 03:04:58;;;;;;;4.80;4.30;;;21.80;60.90;21.10;96969.00;;;;4975609;28;20223;-79
2023/07/09 03:07:26;;;;;;;6.90;5.17;;;21.80;61.10;21.10;96968.00;;;;4983585;28;20207;-79
2023/07/09 03:09:54;;;;;;;5.43;4.87;;;21.80;61.10;21.10;96964.00;;;;4990258;28;20224;-79
2023/07/09 03:12:21;;;;;;;5.83;4.53;;;21.80;61.10;21.10;96968.00;;;;4994317;28;20179;-79
2023/07/09 03:14:50;;;;;;;4.70;4.30;;;21.80;61.10;21.10;96962.00;;;;4989916;28;20196;-79
2023/07/09 03:17:17;;;;;;;5.20;4.70;;;21.70;61.20;21.10;96958.00;;;;4973137;28;20283;-79
2023/07/09 03:19:45;;;;;;;7.03;4.90;;;21.70;61.40;21.00;96965.00;;;;4992051;28;20200;-79
2023/07/09 03:22:13;;;;;;;7.50;4.60;;;21.70;61.50;21.00;96951.00;;;;4974218;28;20204;-80
2023/07/09 03:24:40;;;;;;;5.27;4.40;;;21.70;62.40;21.00;96962.00;;;;4971193;28;20196;-80
2023/07/09 03:27:09;;;;;;;5.13;4.30;;;21.70;61.60;21.00;96972.00;;;;4971373;28;20231;-80
2023/07/09 03:29:37;;;;;;;5.17;4.40;;;21.70;61.70;21.00;96970.00;;;;4982962;28;20230;-80
2023/07/09 03:32:05;;;;;;;5.17;4.63;;;21.70;61.70;21.00;96973.00;;;;4984247;28;20570;-80
2023/07/09 03:34:32;;;;;;;5.57;4.50;;;21.60;61.70;21.00;96973.00;;;;4972718;28;20262;-80
2023/07/09 03:37:01;;;;;;;5.20;4.70;;;21.60;61.90;21.00;96987.00;;;;4978338;28;20818;-80
2023/07/09 03:39:30;;;;;;;6.43;4.77;;;21.60;62.00;21.00;96975.00;;;;4959002;28;20207;-80
2023/07/09 03:41:57;;;;;;;5.60;4.70;;;21.60;62.20;21.00;96988.00;;;;4961366;28;20563;-80
2023/07/09 03:44:26;;;;;;;5.80;4.43;;;21.60;62.10;20.90;96979.00;;;;4970673;28;20570;-80
2023/07/09 03:46:55;;;;;;;5.40;4.40;;;21.60;62.20;20.90;96980.00;;;;4971093;28;20222;-80
2023/07/09 03:49:23;;;;;;;4.90;4.40;;;21.60;62.30;20.90;96981.00;;;;4972385;28;20227;-80
2023/07/09 03:51:50;;;;;;;6.30;4.60;;;21.60;62.30;20.90;96976.00;;;;4972072;28;20204;-80
2023/07/09 03:54:18;;;;;;;6.00;4.97;;;21.60;62.30;20.90;96978.00;;;;4969162;28;20228;-79
2023/07/09 03:56:46;;;;;;;4.80;4.40;;;21.60;62.20;20.90;96974.00;;;;4972644;28;20831;-80
2023/07/09 03:59:14;;;;;;;4.70;4.13;;;21.60;62.20;20.90;96978.00;;;;4969524;28;20198;-79
2023/07/09 04:01:44;;;;;;;5.50;4.80;;;21.60;62.20;20.90;96976.00;;;;4972680;28;20246;-80
2023/07/09 04:04:11;;;;;;;4.80;4.07;;;21.60;63.00;20.90;96977.00;;;;4974413;28;20204;-80
2023/07/09 04:06:39;;;;;;;4.97;4.40;;;21.60;62.50;20.90;96977.00;;;;4969173;28;20288;-80
2023/07/09 04:09:06;;;;;;;5.10;4.20;;;21.60;62.40;20.90;96977.00;;;;4962941;28;20214;-80
2023/07/09 04:11:34;;;;;;;5.30;4.17;;;21.60;62.60;20.90;96983.00;;;;4974708;28;20215;-79
2023/07/09 04:14:03;;;;;;;5.07;4.50;;;21.60;62.70;20.90;96979.00;;;;4974732;28;20295;-78
2023/07/09 04:16:31;;;;;;;4.67;4.27;;;21.60;62.70;20.90;96978.00;;;;4971453;28;20326;-80
2023/07/09 04:18:58;;;;;;;4.93;4.40;;;21.60;62.70;20.90;96974.00;;;;4971239;28;20201;-80
2023/07/09 04:21:25;;;;;;;4.87;4.17;;;21.60;62.80;20.90;96977.00;;;;4969516;28;20206;-79
2023/07/09 04:23:53;;;;;;;5.20;4.70;;;21.60;62.90;20.90;96985.00;;;;4978210;28;20576;-80
2023/07/09 04:26:20;;;;;;;5.33;4.20;;;21.60;63.00;20.90;96982.00;;;;4958739;28;20222;-80
2023/07/09 04:28:47;;;;;;;4.50;4.10;;;21.60;63.20;20.90;96987.00;;;;4969277;28;20726;-78
2023/07/09 04:31:16;;;;;;;4.83;4.43;;;21.60;63.40;20.90;96986.00;;;;4972232;28;20704;-80
2023/07/09 04:33:45;;;;;;;5.37;4.40;;;21.60;63.50;21.00;96996.00;;;;4970702;28;20678;-80
2023/07/09 04:36:12;;;;;;;5.13;4.63;;;21.60;64.30;21.00;96989.00;;;;4963383;28;20651;-80
2023/07/09 04:38:40;;;;;;;5.57;4.43;;;21.60;63.80;21.00;96989.00;;;;4973022;28;20206;-80
2023/07/09 04:41:07;;;;;;;5.37;4.83;;;21.60;63.90;21.00;96999.00;;;;4971661;28;20796;-79
2023/07/09 04:43:34;;;;;;;5.23;4.33;;;21.60;63.90;21.10;96997.00;;;;4957595;28;20204;-78
2023/07/09 04:46:03;;;;;;;5.17;4.67;;;21.70;64.10;21.10;96984.00;;;;4969068;28;20264;-80
2023/07/09 04:48:32;;;;;;;5.93;4.77;;;21.70;64.30;21.10;96986.00;;;;4955978;28;20206;-80
2023/07/09 04:50:59;;;;;;;5.47;4.97;;;21.70;64.50;21.20;96990.00;;;;4963605;28;20306;-80
2023/07/09 04:53:26;;;;;;;5.60;5.03;;;21.70;64.60;21.20;96993.00;;;;4964117;28;20294;-79
2023/07/09 04:55:55;;;;;;;6.03;4.87;;;21.80;64.70;21.30;97003.00;;;;4967545;28;20220;-79
2023/07/09 04:58:22;;;;;;;5.30;4.80;;;21.80;64.80;21.30;96992.00;;;;4977887;28;20200;-78
2023/07/09 05:00:50;;;;;;;6.07;5.33;;;21.80;64.80;21.30;96999.00;;;;4973727;28;20234;-79
2023/07/09 05:03:24;;;;;;;6.47;4.67;;;21.90;65.10;21.40;96996.00;;;;4976425;28;20653;-79
2023/07/09 05:05:54;;;;;;;5.87;5.10;;;21.90;65.20;21.40;96996.00;;;;4973838;28;20227;-79
2023/07/09 05:08:22;;;;;;;5.33;4.80;;;22.00;66.10;21.50;96997.00;;;;4977149;28;20227;-79
2023/07/09 05:10:53;;;;;;;6.83;5.20;;;22.00;65.40;21.60;97003.00;;;;4971260;28;20254;-79
2023/07/09 05:13:21;;;;;;;5.23;4.73;;;22.10;65.40;21.60;97006.00;;;;4959433;28;20204;-79
2023/07/09 05:15:50;;;;;;;4.93;4.23;;;22.10;65.20;21.70;97011.00;;;;4983182;28;20307;-79
2023/07/09 05:18:19;;;;;;;4.93;4.53;;;22.20;65.40;21.70;97002.00;;;;4977954;28;20228;-79
2023/07/09 05:20:48;;;;;;;8.57;4.67;;;22.20;65.30;21.80;97007.00;;;;4970188;28;20209;-80
2023/07/09 05:23:17;;;;;;;4.63;4.13;;;22.30;65.20;21.90;97011.00;;;;4977599;28;20231;-79
2023/07/09 05:25:45;;;;;;;6.53;4.53;;;22.30;65.00;22.00;97008.00;;;;4968971;28;20275;-79
2023/07/09 05:28:12;;;;;;;4.93;3.97;;;22.40;65.00;22.00;97009.00;;;;4977730;28;20207;-80
2023/07/09 05:30:43;;;;;;;5.53;4.33;;;22.50;65.20;22.10;97014.00;;;;4968690;28;20385;-80
2023/07/09 05:33:10;;;;;;;4.53;3.80;;;22.60;65.10;22.20;97018.00;;;;4962117;28;20219;-80
2023/07/09 05:35:38;;;;;;;6.17;4.07;;;22.60;64.80;22.20;97016.00;;;;4969092;28;20738;-80
2023/07/09 05:38:05;;;;;;;4.53;3.80;;;22.70;65.60;22.30;97019.00;;;;4978274;28;20219;-80
2023/07/09 05:40:34;;;;;;;6.53;3.83;;;22.70;64.70;22.40;97021.00;;;;4977664;28;20223;-79
2023/07/09 05:43:01;;;;;;;3.97;3.57;;;22.80;64.50;22.50;97030.00;;;;4962812;28;20200;-79
2023/07/09 05:45:28;;;;;;;4.37;3.63;;;22.80;64.60;22.50;97028.00;;;;4977441;28;20221;-79
2023/07/09 05:47:56;;;;;;;4.50;3.50;;;22.90;64.40;22.60;97030.00;;;;4979272;28;20291;-80
2023/07/09 05:50:23;;;;;;;3.70;3.40;;;23.00;64.20;22.70;97028.00;;;;4965831;28;20228;-79
2023/07/09 05:52:51;;;;;;;4.27;3.70;;;23.10;64.30;22.70;97035.00;;;;4970250;28;20261;-79
2023/07/09 05:55:18;;;;;;;4.67;3.77;;;23.10;64.50;22.80;97037.00;;;;4969905;28;20204;-80
2023/07/09 05:57:47;;;;;;;5.23;3.93;;;23.20;64.60;22.90;97038.00;;;;4976294;28;20196;-80
2023/07/09 06:00:17;;;;;;;3.40;3.10;;;23.30;64.50;23.00;97040.00;;;;4968755;28;20208;-81
2023/07/09 06:02:45;;;;;;;5.37;3.17;;;23.30;64.20;23.00;97045.00;;;;4978090;28;20209;-79
2023/07/09 06:05:12;;;;;;;4.07;3.30;;;23.40;64.10;23.10;97045.00;;;;4980142;28;20219;-79
2023/07/09 06:07:40;;;;;;;6.70;3.67;;;23.50;64.10;23.20;97042.00;;;;4968806;28;20202;-80
2023/07/09 06:10:09;;;;;;;4.73;3.87;;;23.50;63.90;23.20;97043.00;;;;4976323;28;20255;-79
2023/07/09 06:12:37;;;;;;;4.20;3.40;;;23.60;63.90;23.30;97048.00;;;;4977025;28;20207;-81
2023/07/09 06:15:08;;;;;;;3.80;3.47;;;23.70;63.50;23.40;97045.00;;;;4960529;28;20286;-81
2023/07/09 06:17:37;;;;;;;4.07;3.50;;;23.80;63.60;23.50;97043.00;;;;4961105;28;20952;-80
2023/07/09 06:20:05;;;;;;;5.57;3.20;;;23.80;63.50;23.60;97047.00;;;;4940325;28;20669;-79
2023/07/09 06:22:33;;;;;;;4.33;3.40;;;23.90;63.50;23.70;97052.00;;;;4973813;28;20639;-81
2023/07/09 06:25:01;;;;;;;5.67;3.43;;;24.00;63.40;23.70;97052.00;;;;4968965;28;20208;-81
2023/07/09 06:27:29;;;;;;;6.13;3.23;;;24.00;63.30;23.80;97050.00;;;;4975337;28;20222;-81
2023/07/09 06:29:56;;;;;;;4.73;3.73;;;24.10;63.40;23.90;97046.00;;;;4965576;28;20199;-82
2023/07/09 06:32:25;;;;;;;4.70;3.70;;;24.20;63.50;24.00;97054.00;;;;4972097;28;20205;-80
2023/07/09 06:34:53;;;;;;;3.87;3.50;;;24.30;64.00;24.10;97053.00;;;;4972742;28;20203;-81
2023/07/09 06:37:22;;;;;;;4.50;3.50;;;24.40;63.40;24.20;97051.00;;;;4974633;28;20230;-80
2023/07/09 06:39:49;;;;;;;4.40;3.27;;;24.40;63.10;24.30;97053.00;;;;4971415;28;20196;-80
2023/07/09 06:42:17;;;;;;;3.53;3.23;;;24.50;63.30;24.40;97046.00;;;;4953179;28;20577;-81
2023/07/09 06:44:45;;;;;;;4.90;3.53;;;24.60;63.00;24.50;97053.00;;;;4974219;28;20203;-81
2023/07/09 06:47:13;;;;;;;4.60;3.03;;;24.70;62.90;24.60;97057.00;;;;4972917;28;20219;-80
2023/07/09 06:49:41;;;;;;;3.77;3.30;;;24.80;62.40;24.70;97059.00;;;;4979406;28;20226;-80
2023/07/09 06:52:09;;;;;;;6.80;3.13;;;24.90;63.00;24.80;97059.00;;;;4955064;28;20223;-80
2023/07/09 06:54:36;;;;;;;3.43;3.10;;;25.00;62.30;24.90;97055.00;;;;4979773;28;20210;-81
2023/07/09 06:57:04;;;;;;;3.33;3.00;;;25.10;62.10;25.00;97054.00;;;;4975721;28;20219;-81
2023/07/09 06:59:31;;;;;;;3.43;3.13;;;25.20;61.90;25.10;97058.00;;;;4975946;28;20207;-80
2023/07/09 07:01:59;;;;;;;3.57;3.23;;;25.30;61.80;25.20;97055.00;;;;4970846;28;20255;-83
2023/07/09 07:04:28;;;;;;;5.87;3.37;;;25.40;61.70;25.30;97058.00;;;;4982656;28;20203;-82
2023/07/09 07:06:57;;;;;;;3.17;2.90;;;25.50;61.80;25.40;97052.00;;;;4978798;28;20536;-82
2023/07/09 07:09:24;;;;;;;4.37;2.97;;;25.60;62.40;25.60;97053.00;;;;4962532;28;20227;-81
2023/07/09 07:11:52;;;;;;;3.20;2.90;;;25.70;62.60;25.70;97047.00;;;;4965205;28;20295;-83
2023/07/09 07:14:19;;;;;;;5.33;3.50;;;25.80;62.40;25.80;97054.00;;;;4966921;28;20192;-82
2023/07/09 07:16:46;;;;;;;4.20;2.83;;;26.00;62.00;26.00;97055.00;;;;4982934;28;20298;-83
2023/07/09 07:19:14;;;;;;;3.10;2.80;;;26.10;61.40;26.10;97055.00;;;;4973186;28;20209;-82
2023/07/09 07:21:41;;;;;;;3.20;2.90;;;26.30;61.50;26.30;97054.00;;;;4980623;28;20204;-81
2023/07/09 07:24:10;;;;;;;4.80;3.10;;;26.40;61.40;26.50;97057.00;;;;4978566;28;20211;-82
2023/07/09 07:26:37;;;;;;;2.87;2.43;;;26.60;61.30;26.70;97055.00;;;;4983733;28;20255;-82
2023/07/09 07:29:04;;;;;;;4.30;2.60;;;26.70;60.80;26.80;97057.00;;;;4975752;28;20196;-81
2023/07/09 07:31:32;;;;;;;4.90;2.80;;;26.90;60.40;27.00;97051.00;;;;4968215;28;20219;-81
2023/07/09 07:33:59;;;;;;;3.55;3.13;;;27.00;60.40;27.10;97048.00;;;;4981232;28;20226;-81
2023/07/09 07:36:27;;;;;;;3.00;2.50;;;27.20;60.10;27.30;97051.00;;;;4987930;28;20237;-81
2023/07/09 07:38:55;;;;;;;2.70;2.50;;;27.30;60.10;27.40;97052.00;;;;4989419;28;20226;-81
2023/07/09 07:41:24;;;;;;;2.50;2.30;;;27.50;60.20;27.60;97064.00;;;;4988604;28;20259;-82
2023/07/09 07:43:51;;;;;;;2.70;2.50;;;27.60;59.60;27.70;97050.00;;;;4984753;28;21384;-81
2023/07/09 07:46:19;;;;;;;2.70;2.35;;;27.80;59.60;27.90;97052.00;;;;4972929;28;20590;-82
2023/07/09 07:48:46;;;;;;;2.58;2.15;;;28.00;58.80;28.00;97052.00;;;;4965186;28;20200;-81
2023/07/09 07:51:13;;;;;;;2.63;2.05;;;28.10;57.80;28.20;97054.00;;;;4963773;28;20223;-82
2023/07/09 07:53:41;;;;;;;2.60;2.40;;;28.30;57.90;28.40;97053.00;;;;4968348;28;20608;-82
2023/07/09 07:56:08;;;;;;;2.92;2.47;;;28.40;57.70;28.50;97058.00;;;;4977881;28;20726;-82
2023/07/09 07:58:37;;;;;;;2.47;2.25;;;28.60;57.50;28.70;97056.00;;;;4969828;28;20336;-82
2023/07/09 08:01:04;;;;;;;2.30;2.03;;;28.70;56.90;28.90;97057.00;;;;4967615;28;20208;-82
2023/07/09 08:03:31;;;;;;;3.15;2.65;;;28.90;56.40;29.00;97054.00;;;;4970999;28;20290;-80
2023/07/09 08:05:59;;;;;;;2.25;2.05;;;29.10;56.20;29.20;97051.00;;;;4968858;28;20236;-85
2023/07/09 08:08:26;;;;;;;2.33;2.10;;;29.20;55.80;29.40;97050.00;;;;4974981;28;20255;-83
2023/07/09 08:11:04;;;;;;;2.20;2.00;;;29.40;55.40;29.70;97055.00;;;;4974128;28;20350;-82
2023/07/09 08:13:32;;;;;;;2.40;2.20;;;29.60;54.00;29.80;97054.00;;;;4969708;28;20200;-81
2023/07/09 08:16:02;;;;;;;2.40;2.20;;;29.80;54.40;30.00;97054.00;;;;4972393;28;20252;-82
2023/07/09 08:18:29;;;;;;;3.63;2.00;;;29.90;54.20;30.20;97052.00;;;;4966818;28;20700;-83
2023/07/09 08:20:57;;;;;;;2.25;2.05;;;30.10;53.40;30.40;97057.00;;;;4967959;28;20301;-84
2023/07/09 08:23:24;;;;;;;2.53;2.20;;;30.30;52.40;30.50;97056.00;;;;4966491;28;20203;-82
2023/07/09 08:25:54;;;;;;;4.47;2.58;;;30.50;52.20;30.70;97047.00;;;;4970282;28;20223;-81
2023/07/09 08:28:22;;;;;;;2.97;2.05;;;30.70;51.80;30.90;97052.00;;;;4973388;28;20656;-83
2023/07/09 08:30:49;;;;;;;2.95;2.45;;;30.80;52.10;31.10;97041.00;;;;4955925;28;20703;-82
2023/07/09 08:33:18;;;;;;;2.88;1.98;;;31.00;51.90;31.30;97042.00;;;;4976583;28;20262;-82
2023/07/09 08:35:45;;;;;;;2.65;2.00;;;31.20;51.60;31.50;97051.00;;;;4972187;28;20216;-82
2023/07/09 08:38:12;;;;;;;7.15;2.75;;;31.40;50.70;31.60;97050.00;;;;4966428;28;20275;-80
2023/07/09 08:40:41;;;;;;;2.00;1.90;;;31.50;50.70;31.80;97050.00;;;;4971190;28;20203;-80
2023/07/09 08:43:27;;;;;;;1.98;1.80;;;31.70;50.30;31.90;97047.00;;;;4973572;28;20227;-84
2023/07/09 08:46:09;;;;;;;2.28;1.65;;;31.90;48.90;32.10;97051.00;;;;4951454;28;20218;-83
2023/07/09 08:48:43;;;;;;;2.00;1.90;;;32.00;48.90;32.30;97052.00;;;;4965667;28;20286;-83
2023/07/09 08:51:20;;;;;;;2.30;1.90;;;32.20;48.20;32.40;97044.00;;;;4979135;28;20311;-83
2023/07/09 08:53:53;;;;;;;2.15;1.70;;;32.30;47.80;32.60;97044.00;;;;4979816;28;20197;-82
2023/07/09 08:56:22;;;;;;;2.10;1.90;;;32.50;47.00;32.70;97047.00;;;;4977845;28;20302;-82
2023/07/09 08:58:53;;;;;;;1.80;1.70;;;32.70;47.80;32.90;97047.00;;;;4972457;28;20666;-83
2023/07/09 09:01:25;;;;;;;2.33;2.13;;;32.80;46.80;33.00;97039.00;;;;4970100;28;20287;-82
2023/07/09 09:04:02;;;;;;;2.00;1.77;;;32.90;46.20;33.20;97042.00;;;;4962999;28;20218;-82
2023/07/09 09:06:32;;;;;;;2.63;2.10;;;33.10;46.10;33.30;97042.00;;;;4968574;28;20215;-83
2023/07/09 09:09:13;;;;;;;3.03;1.95;;;33.20;46.30;33.50;97050.00;;;;4988721;28;20200;-84
2023/07/09 09:11:46;;;;;;;8.15;2.45;;;33.40;45.30;33.70;97050.00;;;;4968499;28;20298;-83
2023/07/09 09:14:27;;;;;;;1.85;1.48;;;33.50;44.90;33.80;97049.00;;;;4970924;28;20192;-82
2023/07/09 09:16:57;;;;;;;2.53;1.80;;;33.70;44.70;34.00;97048.00;;;;4973214;28;20711;-83
2023/07/09 09:19:36;;;;;;;3.17;1.63;;;33.80;45.30;34.10;97057.00;;;;4969010;28;20276;-80
2023/07/09 09:22:09;;;;;;;1.67;1.52;;;34.00;44.50;34.30;97054.00;;;;4970288;28;20207;-80
2023/07/09 09:24:44;;;;;;;2.55;1.55;;;34.10;43.90;34.40;97053.00;;;;4959389;28;20635;-83
2023/07/09 09:27:11;;;;;;;2.00;1.80;;;34.30;44.00;34.60;97048.00;;;;4967127;28;20247;-82
2023/07/09 09:29:38;;;;;;;2.08;1.90;;;34.40;43.60;34.70;97049.00;;;;4966670;28;20206;-82
2023/07/09 09:32:26;;;;;;;1.45;1.35;;;34.60;43.00;34.90;97050.00;;;;4949888;28;20617;-84
2023/07/09 09:34:55;;;;;;;3.47;1.73;;;34.80;41.80;35.00;97058.00;;;;4976975;28;20211;-81
2023/07/09 09:37:29;;;;;;;1.73;1.63;;;34.90;42.80;35.10;97061.00;;;;4969913;28;20233;-81
2023/07/09 09:39:57;;;;;;;1.73;1.63;;;35.10;42.10;35.30;97051.00;;;;4970359;28;20198;-83
2023/07/09 09:42:26;;;;;;;1.80;1.45;;;35.20;41.70;35.50;97056.00;;;;4978247;28;20217;-80
2023/07/09 09:44:55;;;;;;;2.22;1.70;;;35.40;42.00;35.60;97061.00;;;;4974652;28;20213;-82
2023/07/09 09:47:27;;;;;;;2.25;1.92;;;35.60;41.40;35.80;97061.00;;;;4974854;28;20255;-82
2023/07/09 09:49:56;;;;;;;1.50;1.40;;;35.70;41.70;35.90;97067.00;;;;4952360;28;20207;-82
2023/07/09 09:52:33;;;;;;;1.45;1.10;;;35.90;41.20;36.10;97058.00;;;;4973906;28;20272;-81
2023/07/09 09:55:12;;;;;;;1.50;1.40;;;36.10;40.90;36.30;97062.00;;;;4968525;28;20200;-82
2023/07/09 09:57:39;;;;;;;1.38;1.27;;;36.30;40.80;36.40;97063.00;;;;4974854;28;20260;-80
2023/07/09 10:00:16;;;;;;;1.45;1.35;;;36.60;41.20;36.60;97058.00;;;;4982205;28;20291;-80
2023/07/09 10:02:45;;;;;;;1.70;1.50;;;36.80;40.40;36.70;97060.00;;;;4979737;28;20281;-84
2023/07/09 10:05:22;;;;;;;1.80;1.30;;;37.10;40.00;36.90;97059.00;;;;4964980;28;20683;-82
2023/07/09 10:08:02;;;;;;;1.75;1.65;;;37.40;39.40;37.10;97059.00;;;;4972861;28;20278;-83
2023/07/09 10:10:33;;;;;;;2.20;1.48;;;37.60;39.00;37.30;97061.00;;;;4972738;28;20215;-81
2023/07/09 10:13:11;;;;;;;1.42;1.33;;;37.90;39.10;37.50;97059.00;;;;4970086;28;20230;-80
2023/07/09 10:15:52;;;;;;;1.60;1.50;;;38.20;38.40;37.60;97056.00;;;;4967952;28;20223;-80
2023/07/09 10:18:40;;;;;;;2.10;1.35;;;38.40;37.40;37.80;97057.00;;;;4968380;28;20247;-80
2023/07/09 10:21:17;;;;;;;1.80;1.52;;;38.70;36.90;38.00;97048.00;;;;4969254;28;20211;-81
2023/07/09 10:23:59;;;;;;;1.52;1.42;;;38.90;37.10;38.10;97048.00;;;;4971353;28;20294;-81
2023/07/09 10:26:35;;;;;;;3.20;1.42;;;39.10;36.30;38.30;97052.00;;;;4967417;28;20247;-80
2023/07/09 10:29:46;;;;;;;1.60;1.50;;;39.30;36.60;38.50;97047.00;;;;4969256;28;20213;-78
2023/07/09 10:32:40;;;;;;;2.17;1.55;;;39.50;35.50;38.60;97054.00;;;;4966612;28;20227;-82
2023/07/09 10:35:17;;;;;;;2.28;1.40;;;39.70;34.90;38.80;97054.00;;;;4967423;28;20294;-82
2023/07/09 10:38:08;;;;;;;3.03;1.50;;;39.80;35.00;38.90;97050.00;;;;4963093;28;20214;-82
2023/07/09 10:40:42;;;;;;;1.73;1.50;;;39.90;34.20;39.00;97056.00;;;;4969370;28;20219;-80
2023/07/09 10:43:17;;;;;;;2.00;1.60;;;39.90;34.50;39.00;97054.00;;;;4974929;28;20254;-81
2023/07/09 10:45:56;;;;;;;1.40;1.30;;;39.90;33.80;39.10;97047.00;;;;4968460;28;20223;-80
2023/07/09 10:48:37;;;;;;;1.40;1.30;;;40.00;34.60;39.20;97049.00;;;;4953670;28;20284;-80
2023/07/09 10:51:08;;;;;;;2.35;1.60;;;40.00;33.60;39.30;97049.00;;;;4954395;28;20195;-80
2023/07/09 10:53:44;;;;;;;2.38;1.40;;;40.00;34.50;39.30;97056.00;;;;4963912;28;20223;-80
2023/07/09 10:56:16;;;;;;;2.72;1.60;;;40.00;34.00;39.40;97052.00;;;;4970405;28;20286;-80
2023/07/09 10:58:56;;;;;;;4.10;1.35;;;39.90;33.80;39.30;97052.00;;;;4948279;28;20200;-79
2023/07/09 11:01:32;;;;;;;1.70;1.58;;;39.90;32.90;39.30;97051.00;;;;4957742;28;20213;-80
2023/07/09 11:04:06;;;;;;;2.97;1.70;;;39.80;32.50;39.20;97053.00;;;;4967872;28;20221;-80
2023/07/09 11:06:40;;;;;;;2.63;1.40;;;39.70;32.90;39.00;97051.00;;;;4959641;28;20219;-80
2023/07/09 11:09:27;;;;;;;2.17;1.27;;;39.50;32.90;38.90;97053.00;;;;4976391;28;20214;-81